Terminal Aerodrome Forecast
Issued by NWS Portland, OR

Home | Current Version | Previous Version | Text Only | Print | Product List | Glossary On
Versions: 1 2 3 4 5 6 7 8 9 10 11 12 13 14 15 16 17 18 19 20 21 22
000
FTUS46 KPQR 072327
TAFSLE
TAF
KSLE 072327Z 0800/0824 36007KT P6SM SKC
     FM080900 33008KT 6SM BR SKC
     FM081300 35008KT 2SM -SN BR OVC019
     FM081800 36011KT 2SM -FZRA BR OVC007=

USA.gov is the U.S. government's official web portal to all federal, state and local government web resources and services.